Time;durP1;ratioP1;P1;durP2;ratioP2;P2;SDS_P1;SDS_P2;PMS_P1;PMS_P2;Temp;Humidity;BMP_temperature;BMP_pressure;BME280_temperature;BME280_humidity;BME280_pressure;Samples;Min_cycle;Max_cycle;Signal;HPM_P1;HPM_P2
2022/11/14 00:01:59;;;;;;;14.60;7.70;;;7.70;99.90;;;;;;5061743;28;20032;-75
2022/11/14 00:04:24;;;;;;;17.10;8.23;;;7.70;99.90;;;;;;5057805;28;20024;-75
2022/11/14 00:06:50;;;;;;;16.45;8.52;;;7.70;99.90;;;;;;5059920;28;20037;-75
2022/11/14 00:09:15;;;;;;;14.85;8.10;;;7.70;99.90;;;;;;5057106;28;20377;-74
2022/11/14 00:11:41;;;;;;;15.20;7.85;;;7.70;99.90;;;;;;5065035;28;20079;-75
2022/11/14 00:14:08;;;;;;;16.48;7.90;;;7.70;99.90;;;;;;5051125;28;20116;-75
2022/11/14 00:16:34;;;;;;;18.02;8.18;;;7.80;99.90;;;;;;5067423;28;20071;-75
2022/11/14 00:18:59;;;;;;;15.63;7.30;;;7.80;99.90;;;;;;5052083;28;20064;-76
2022/11/14 00:21:25;;;;;;;13.38;7.68;;;7.90;99.90;;;;;;5057625;28;20020;-77
2022/11/14 00:23:50;;;;;;;14.32;7.90;;;7.80;99.90;;;;;;5061882;28;20098;-76
2022/11/14 00:26:16;;;;;;;15.40;7.28;;;7.80;99.90;;;;;;5050088;28;20025;-76
2022/11/14 00:28:41;;;;;;;12.60;7.28;;;7.80;99.90;;;;;;5052114;28;20101;-77
2022/11/14 00:31:09;;;;;;;15.52;7.75;;;7.80;99.90;;;;;;5053088;28;20060;-76
2022/11/14 00:33:34;;;;;;;14.52;7.38;;;7.80;99.90;;;;;;5059291;28;20427;-76
2022/11/14 00:36:00;;;;;;;14.32;6.93;;;7.90;99.90;;;;;;5060905;28;20108;-75
2022/11/14 00:38:25;;;;;;;15.88;7.65;;;7.90;99.90;;;;;;5053313;28;20021;-75
2022/11/14 00:40:51;;;;;;;16.17;8.52;;;7.90;99.90;;;;;;5049784;28;20027;-75
2022/11/14 00:43:17;;;;;;;13.88;7.38;;;7.90;99.90;;;;;;5054995;28;20024;-76
2022/11/14 00:45:46;;;;;;;13.23;6.75;;;7.90;99.90;;;;;;5059498;28;20028;-76
2022/11/14 00:48:12;;;;;;;14.07;7.72;;;7.90;99.90;;;;;;5058715;28;20032;-75
2022/11/14 00:50:38;;;;;;;13.07;6.85;;;8.00;99.90;;;;;;5067795;28;20055;-75
2022/11/14 00:53:04;;;;;;;13.70;7.38;;;8.00;99.90;;;;;;5053738;28;20992;-75
2022/11/14 00:55:30;;;;;;;15.43;7.55;;;7.90;99.90;;;;;;5065880;28;20596;-75
2022/11/14 00:57:55;;;;;;;13.60;7.30;;;8.00;99.90;;;;;;5061381;28;20029;-75
2022/11/14 01:00:21;;;;;;;14.43;7.90;;;8.00;99.90;;;;;;5065870;28;20522;-75
2022/11/14 01:02:46;;;;;;;12.55;7.03;;;8.00;99.90;;;;;;5055045;28;20379;-74
2022/11/14 01:05:12;;;;;;;14.20;6.68;;;8.00;99.90;;;;;;5068152;28;20056;-75
2022/11/14 01:07:37;;;;;;;14.02;6.95;;;8.00;99.90;;;;;;5057477;28;20382;-75
2022/11/14 01:10:04;;;;;;;12.95;6.95;;;8.00;99.90;;;;;;5060653;28;20087;-75
2022/11/14 01:12:29;;;;;;;13.25;7.18;;;8.00;99.90;;;;;;5066580;28;20035;-75
2022/11/14 01:14:55;;;;;;;12.52;6.68;;;8.00;99.90;;;;;;5053449;28;20029;-75
2022/11/14 01:17:20;;;;;;;13.45;6.78;;;8.00;99.90;;;;;;5065559;28;20171;-75
2022/11/14 01:19:46;;;;;;;13.60;7.38;;;8.00;99.90;;;;;;5058612;28;20035;-75
2022/11/14 01:22:12;;;;;;;13.27;6.93;;;8.00;99.90;;;;;;5058837;28;20021;-76
2022/11/14 01:24:37;;;;;;;13.43;6.50;;;8.00;99.90;;;;;;5067733;28;20450;-76
2022/11/14 01:27:03;;;;;;;14.98;7.72;;;8.00;99.90;;;;;;5053164;28;20158;-75
2022/11/14 01:29:28;;;;;;;12.35;6.95;;;8.00;99.90;;;;;;5064264;28;20025;-75
2022/11/14 01:31:55;;;;;;;18.27;8.02;;;8.00;99.90;;;;;;5059887;28;20367;-75
2022/11/14 01:34:21;;;;;;;13.38;6.68;;;8.00;99.90;;;;;;5058493;28;20112;-75
2022/11/14 01:36:47;;;;;;;13.52;6.88;;;8.00;99.90;;;;;;5059013;28;20119;-75
2022/11/14 01:39:12;;;;;;;14.23;7.60;;;8.00;99.90;;;;;;5071996;28;20424;-76
2022/11/14 01:41:38;;;;;;;14.73;7.20;;;8.00;99.90;;;;;;5062323;28;20033;-75
2022/11/14 01:44:12;;;;;;;15.38;6.78;;;8.00;99.90;;;;;;5064392;28;20419;-75
2022/11/14 01:46:40;;;;;;;16.77;8.10;;;8.00;99.90;;;;;;5053676;28;20052;-75
2022/11/14 01:49:17;;;;;;;14.27;7.40;;;8.00;99.90;;;;;;5055334;28;20029;-75
2022/11/14 01:51:53;;;;;;;13.23;7.18;;;8.00;99.90;;;;;;5062785;28;20529;-75
2022/11/14 01:54:26;;;;;;;15.77;7.28;;;8.00;99.90;;;;;;5061239;28;20555;-75
2022/11/14 01:56:56;;;;;;;16.13;7.25;;;8.00;99.90;;;;;;5069807;28;20432;-75
2022/11/14 01:59:26;;;;;;;13.85;7.50;;;8.00;99.90;;;;;;5059574;28;20111;-75
2022/11/14 02:01:53;;;;;;;14.77;7.38;;;8.00;99.90;;;;;;5065473;28;20033;-75
2022/11/14 02:04:29;;;;;;;15.45;7.78;;;8.00;99.90;;;;;;5067288;28;20032;-75
2022/11/14 02:06:59;;;;;;;13.45;7.13;;;8.00;99.90;;;;;;5058468;28;20055;-75
2022/11/14 02:09:28;;;;;;;14.77;7.15;;;7.90;99.90;;;;;;5068022;28;20397;-76
2022/11/14 02:11:56;;;;;;;13.85;6.90;;;7.90;99.90;;;;;;5062902;28;20070;-75
2022/11/14 02:14:22;;;;;;;13.20;6.40;;;7.90;99.90;;;;;;5060339;28;20033;-76
2022/11/14 02:16:48;;;;;;;13.38;6.78;;;7.90;99.90;;;;;;5071435;28;20355;-76
2022/11/14 02:19:14;;;;;;;15.55;6.90;;;7.90;99.90;;;;;;5057982;28;20067;-76
2022/11/14 02:21:40;;;;;;;12.63;6.53;;;7.90;99.90;;;;;;5067564;28;20021;-75
2022/11/14 02:24:10;;;;;;;14.95;6.60;;;7.90;99.90;;;;;;5065592;28;20032;-76
2022/11/14 02:26:37;;;;;;;12.82;6.90;;;7.90;99.90;;;;;;5058092;28;20028;-75
2022/11/14 02:29:06;;;;;;;11.80;6.32;;;7.90;99.90;;;;;;5070392;28;20078;-76
2022/11/14 02:31:32;;;;;;;13.90;6.60;;;7.90;99.90;;;;;;5060303;28;20033;-76
2022/11/14 02:33:57;;;;;;;13.93;6.57;;;7.90;99.90;;;;;;5064313;28;20044;-76
2022/11/14 02:36:23;;;;;;;13.38;6.47;;;7.90;99.90;;;;;;5060329;28;20069;-75
2022/11/14 02:38:48;;;;;;;12.25;6.35;;;7.90;99.90;;;;;;5070867;28;20027;-76
2022/11/14 02:41:14;;;;;;;14.07;6.65;;;7.90;99.90;;;;;;5059086;28;20016;-75
2022/11/14 02:43:39;;;;;;;11.55;6.32;;;7.90;99.90;;;;;;5065573;28;20032;-75
2022/11/14 02:46:05;;;;;;;14.18;6.75;;;7.90;99.90;;;;;;5063996;28;20111;-75
2022/11/14 02:48:30;;;;;;;13.05;6.50;;;7.90;99.90;;;;;;5056992;28;20033;-75
2022/11/14 02:50:56;;;;;;;14.63;7.05;;;7.90;99.90;;;;;;5069290;28;20035;-75
2022/11/14 02:53:22;;;;;;;11.95;6.70;;;7.90;99.90;;;;;;5059579;28;20476;-75
2022/11/14 02:55:47;;;;;;;13.85;6.68;;;7.90;99.90;;;;;;5064188;28;20047;-75
2022/11/14 02:58:13;;;;;;;13.10;6.60;;;7.80;99.90;;;;;;5066749;28;20017;-75
2022/11/14 03:00:38;;;;;;;14.50;7.18;;;7.90;99.90;;;;;;5058559;28;20481;-75
2022/11/14 03:03:04;;;;;;;15.35;6.97;;;7.90;99.90;;;;;;5069044;28;20112;-75
2022/11/14 03:05:30;;;;;;;15.27;7.55;;;7.90;99.90;;;;;;5059323;28;20036;-75
2022/11/14 03:07:55;;;;;;;22.15;7.85;;;7.90;99.90;;;;;;5064898;28;20043;-75
2022/11/14 03:10:22;;;;;;;17.38;8.45;;;7.80;99.90;;;;;;5060732;28;20388;-75
2022/11/14 03:12:54;;;;;;;16.58;7.72;;;7.80;99.90;;;;;;5071078;28;20029;-75
2022/11/14 03:15:20;;;;;;;17.88;8.75;;;7.80;99.90;;;;;;5057795;28;20462;-75
2022/11/14 03:17:46;;;;;;;15.00;7.20;;;7.80;99.90;;;;;;5063878;28;20033;-75
2022/11/14 03:20:11;;;;;;;16.35;7.53;;;7.70;99.90;;;;;;5064366;28;20029;-75
2022/11/14 03:22:37;;;;;;;17.98;7.20;;;7.70;99.90;;;;;;5057079;28;20025;-75
2022/11/14 03:25:03;;;;;;;15.75;7.13;;;7.70;99.90;;;;;;5069919;28;20035;-75
2022/11/14 03:27:28;;;;;;;14.55;7.45;;;7.70;99.90;;;;;;5058686;28;20465;-75
2022/11/14 03:29:54;;;;;;;13.20;6.80;;;7.70;99.90;;;;;;5062961;28;20041;-75
2022/11/14 03:32:19;;;;;;;15.93;7.30;;;7.70;99.90;;;;;;5065932;28;20063;-75
2022/11/14 03:34:45;;;;;;;14.77;7.72;;;7.60;99.90;;;;;;5057049;28;20037;-75
2022/11/14 03:37:11;;;;;;;16.17;6.75;;;7.60;99.90;;;;;;5063739;28;20028;-75
2022/11/14 03:39:36;;;;;;;13.55;7.07;;;7.60;99.90;;;;;;5065050;28;20025;-74
2022/11/14 03:42:02;;;;;;;15.02;7.25;;;7.60;99.90;;;;;;5063592;28;20036;-75
2022/11/14 03:44:28;;;;;;;15.85;7.07;;;7.60;99.90;;;;;;5057873;28;20025;-75
2022/11/14 03:46:53;;;;;;;15.27;6.90;;;7.50;99.90;;;;;;5069302;28;20178;-76
2022/11/14 03:49:19;;;;;;;16.40;7.65;;;7.50;99.90;;;;;;5058015;28;20026;-76
2022/11/14 03:51:44;;;;;;;14.00;7.47;;;7.50;99.90;;;;;;5063802;28;20055;-76
2022/11/14 03:54:10;;;;;;;18.90;7.68;;;7.50;99.90;;;;;;5064762;28;20385;-76
2022/11/14 03:56:35;;;;;;;15.85;7.45;;;7.50;99.90;;;;;;5057873;28;20104;-76
2022/11/14 03:59:01;;;;;;;15.50;7.47;;;7.50;99.90;;;;;;5067874;28;20078;-75
2022/11/14 04:01:28;;;;;;;15.05;6.93;;;7.50;99.90;;;;;;5057102;28;20465;-76
2022/11/14 04:03:53;;;;;;;17.98;7.43;;;7.50;99.90;;;;;;5063072;28;20025;-76
2022/11/14 04:06:19;;;;;;;16.67;7.20;;;7.50;99.90;;;;;;5059612;28;20040;-76
2022/11/14 04:08:44;;;;;;;16.10;6.95;;;7.40;99.90;;;;;;5069109;28;20406;-76
2022/11/14 04:11:10;;;;;;;15.10;7.00;;;7.40;99.90;;;;;;5055000;28;20070;-76
2022/11/14 04:13:36;;;;;;;12.88;6.65;;;7.40;99.90;;;;;;5064552;28;20116;-76
2022/11/14 04:16:02;;;;;;;13.02;6.90;;;7.40;99.90;;;;;;5061788;28;20036;-75
2022/11/14 04:18:27;;;;;;;13.88;7.28;;;7.40;99.90;;;;;;5056943;28;20120;-75
2022/11/14 04:20:53;;;;;;;14.02;6.80;;;7.40;99.90;;;;;;5067585;28;20025;-76
2022/11/14 04:23:19;;;;;;;15.75;7.45;;;7.40;99.90;;;;;;5056534;28;20024;-76
2022/11/14 04:25:45;;;;;;;18.33;6.90;;;7.40;99.90;;;;;;5063092;28;20474;-76
2022/11/14 04:28:11;;;;;;;14.57;7.80;;;7.40;99.90;;;;;;5062793;28;20081;-76
2022/11/14 04:30:37;;;;;;;14.60;7.22;;;7.40;99.90;;;;;;5056682;28;20044;-75
2022/11/14 04:33:03;;;;;;;16.67;6.82;;;7.30;99.90;;;;;;5067403;28;20028;-75
2022/11/14 04:35:29;;;;;;;16.60;7.43;;;7.40;99.90;;;;;;5057654;28;20020;-76
2022/11/14 04:37:54;;;;;;;14.32;7.32;;;7.30;99.90;;;;;;5062589;28;20469;-76
2022/11/14 04:40:20;;;;;;;15.10;7.28;;;7.30;99.90;;;;;;5058014;28;20032;-75
2022/11/14 04:42:46;;;;;;;16.85;7.22;;;7.30;99.90;;;;;;5052767;28;20111;-76
2022/11/14 04:45:12;;;;;;;15.63;7.25;;;7.40;99.90;;;;;;5054438;28;20055;-76
2022/11/14 04:47:37;;;;;;;16.42;7.82;;;7.30;99.90;;;;;;5064825;28;20431;-75
2022/11/14 04:50:04;;;;;;;13.88;6.72;;;7.30;99.90;;;;;;5061120;28;20029;-75
2022/11/14 04:52:29;;;;;;;14.25;7.28;;;7.40;99.90;;;;;;5057601;28;20029;-75
2022/11/14 04:54:55;;;;;;;14.27;7.20;;;7.30;99.90;;;;;;5067036;28;20025;-77
2022/11/14 04:57:20;;;;;;;13.68;6.80;;;7.30;99.90;;;;;;5055864;28;20082;-76
2022/11/14 04:59:46;;;;;;;15.98;6.70;;;7.40;99.90;;;;;;5063584;28;20415;-75
2022/11/14 05:02:11;;;;;;;13.20;6.60;;;7.40;99.90;;;;;;5062520;28;20078;-75
2022/11/14 05:04:37;;;;;;;12.85;6.13;;;7.30;99.90;;;;;;5056474;28;20033;-75
2022/11/14 05:07:03;;;;;;;11.30;6.43;;;7.30;99.90;;;;;;5062231;28;20033;-75
2022/11/14 05:09:28;;;;;;;9.98;6.13;;;7.20;99.90;;;;;;5065268;28;20083;-75
2022/11/14 05:11:54;;;;;;;12.88;6.53;;;7.30;99.90;;;;;;5060699;28;20028;-75
2022/11/14 05:14:20;;;;;;;14.35;7.15;;;7.20;99.90;;;;;;5058718;28;20098;-75
2022/11/14 05:16:45;;;;;;;13.52;7.00;;;7.20;99.90;;;;;;5067026;28;20055;-75
2022/11/14 05:19:11;;;;;;;12.35;6.45;;;7.20;99.90;;;;;;5053774;28;20029;-75
2022/11/14 05:21:36;;;;;;;13.07;6.90;;;7.20;99.90;;;;;;5063645;28;20106;-75
2022/11/14 05:24:02;;;;;;;12.07;6.95;;;7.20;99.90;;;;;;5062337;28;20481;-75
2022/11/14 05:26:28;;;;;;;13.03;6.70;;;7.20;99.90;;;;;;5056213;28;20031;-75
2022/11/14 05:28:53;;;;;;;11.18;5.75;;;7.10;99.90;;;;;;5067678;28;20100;-75
2022/11/14 05:31:19;;;;;;;11.10;6.22;;;7.10;99.90;;;;;;5055124;28;20029;-75
2022/11/14 05:33:45;;;;;;;12.50;6.20;;;7.10;99.90;;;;;;5063499;28;20025;-75
2022/11/14 05:36:14;;;;;;;11.90;6.93;;;7.10;99.90;;;;;;5059096;28;20491;-75
2022/11/14 05:38:40;;;;;;;8.82;5.72;;;7.10;99.90;;;;;;5067528;28;20020;-75
2022/11/14 05:41:07;;;;;;;10.97;5.97;;;7.10;99.90;;;;;;5053429;28;20074;-75
2022/11/14 05:43:33;;;;;;;13.13;7.00;;;7.10;99.90;;;;;;5063951;28;20069;-75
2022/11/14 05:46:00;;;;;;;12.27;6.63;;;7.10;99.90;;;;;;5060335;28;20044;-75
2022/11/14 05:48:26;;;;;;;11.82;6.15;;;7.00;99.90;;;;;;5056042;28;20074;-75
2022/11/14 05:50:58;;;;;;;12.50;6.55;;;7.00;99.90;;;;;;5067680;28;20104;-75
2022/11/14 05:53:25;;;;;;;12.30;7.10;;;6.90;99.90;;;;;;5057364;28;20115;-75
2022/11/14 05:55:50;;;;;;;11.73;6.53;;;6.90;99.90;;;;;;5060834;28;20171;-76
2022/11/14 05:58:16;;;;;;;11.37;6.50;;;6.90;99.90;;;;;;5064363;28;20075;-76
2022/11/14 06:00:42;;;;;;;11.40;6.93;;;6.80;99.90;;;;;;5053773;28;20465;-76
2022/11/14 06:03:07;;;;;;;12.32;6.90;;;6.90;99.90;;;;;;5066543;28;20028;-76
2022/11/14 06:05:34;;;;;;;14.33;7.30;;;6.90;99.90;;;;;;5057527;28;20496;-77
2022/11/14 06:08:00;;;;;;;12.13;6.78;;;6.80;99.90;;;;;;5062199;28;20110;-77
2022/11/14 06:10:25;;;;;;;12.23;7.13;;;6.90;99.90;;;;;;5055445;28;20107;-76
2022/11/14 06:12:51;;;;;;;10.80;6.47;;;6.90;99.90;;;;;;5066459;28;20025;-76
2022/11/14 06:15:17;;;;;;;12.17;6.83;;;6.90;99.90;;;;;;5056307;28;20416;-77
2022/11/14 06:17:43;;;;;;;13.17;6.97;;;6.90;99.90;;;;;;5061202;28;20367;-77
2022/11/14 06:20:09;;;;;;;11.53;6.40;;;6.90;99.90;;;;;;5061537;28;20268;-76
2022/11/14 06:22:34;;;;;;;11.37;6.90;;;6.90;99.90;;;;;;5056231;28;20029;-76
2022/11/14 06:25:01;;;;;;;12.53;6.90;;;6.90;99.90;;;;;;5069132;28;20039;-77
2022/11/14 06:27:26;;;;;;;11.97;6.27;;;6.90;99.90;;;;;;5059813;28;20481;-75
2022/11/14 06:29:52;;;;;;;14.20;7.63;;;6.90;99.90;;;;;;5063346;28;20037;-76
2022/11/14 06:32:18;;;;;;;15.27;6.87;;;6.90;99.90;;;;;;5066720;28;20029;-76
2022/11/14 06:34:43;;;;;;;12.47;7.37;;;6.90;99.90;;;;;;5057249;28;20044;-76
2022/11/14 06:37:09;;;;;;;12.47;7.13;;;6.90;99.90;;;;;;5056437;28;20032;-77
2022/11/14 06:39:34;;;;;;;12.47;7.23;;;6.90;99.90;;;;;;5067800;28;20108;-76
2022/11/14 06:42:00;;;;;;;11.27;6.50;;;6.80;99.90;;;;;;5063618;28;20029;-76
2022/11/14 06:44:25;;;;;;;12.87;6.70;;;6.80;99.90;;;;;;5059183;28;20021;-76
2022/11/14 06:46:51;;;;;;;14.27;7.38;;;6.80;99.90;;;;;;5070705;28;20033;-76
2022/11/14 06:49:16;;;;;;;14.07;7.35;;;6.90;99.90;;;;;;5059149;28;20288;-76
2022/11/14 06:51:42;;;;;;;12.07;7.17;;;7.00;99.90;;;;;;5065363;28;20495;-76
2022/11/14 06:54:10;;;;;;;16.07;7.23;;;6.90;99.90;;;;;;5066083;28;20408;-76
2022/11/14 06:56:36;;;;;;;12.55;7.18;;;6.90;99.90;;;;;;5059028;28;20379;-76
2022/11/14 06:59:02;;;;;;;13.60;6.77;;;6.90;99.90;;;;;;5070245;28;20020;-76
2022/11/14 07:01:28;;;;;;;13.43;6.80;;;6.80;99.90;;;;;;5059181;28;20025;-75
2022/11/14 07:03:54;;;;;;;11.67;6.90;;;6.80;99.90;;;;;;5064180;28;20040;-75
2022/11/14 07:06:22;;;;;;;11.93;6.80;;;6.70;99.90;;;;;;5061438;28;20021;-75
2022/11/14 07:08:47;;;;;;;11.67;6.70;;;6.70;99.90;;;;;;5051660;28;20140;-76
2022/11/14 07:11:21;;;;;;;11.80;6.63;;;6.70;99.90;;;;;;5066282;28;20037;-76
2022/11/14 07:13:48;;;;;;;11.90;6.47;;;6.70;99.90;;;;;;5064319;28;20052;-75
2022/11/14 07:16:14;;;;;;;10.53;6.20;;;6.60;99.90;;;;;;5064872;28;20028;-75
2022/11/14 07:18:39;;;;;;;11.33;6.47;;;6.60;99.90;;;;;;5057741;28;20528;-75
2022/11/14 07:21:05;;;;;;;11.87;6.17;;;6.60;99.90;;;;;;5067005;28;20416;-75
2022/11/14 07:23:33;;;;;;;11.03;6.30;;;6.70;99.90;;;;;;5066414;28;20025;-75
2022/11/14 07:26:06;;;;;;;12.00;6.70;;;6.70;99.90;;;;;;5062481;28;20032;-75
2022/11/14 07:28:40;;;;;;;10.77;5.77;;;6.70;99.90;;;;;;5057461;28;20025;-75
2022/11/14 07:31:08;;;;;;;10.23;5.83;;;6.70;99.90;;;;;;5066584;28;20020;-75
2022/11/14 07:33:34;;;;;;;10.03;6.20;;;6.80;99.90;;;;;;5065795;28;20393;-75
2022/11/14 07:36:00;;;;;;;11.87;6.23;;;6.80;99.90;;;;;;5059322;28;20055;-75
2022/11/14 07:38:26;;;;;;;10.63;5.63;;;6.90;99.90;;;;;;5067136;28;20125;-75
2022/11/14 07:41:13;;;;;;;10.63;6.03;;;7.00;99.90;;;;;;5054980;28;20470;-75
2022/11/14 07:43:39;;;;;;;12.97;6.63;;;7.00;99.90;;;;;;5064241;28;20025;-75
2022/11/14 07:46:09;;;;;;;10.90;6.77;;;7.00;99.90;;;;;;5062941;28;20463;-75
2022/11/14 07:48:35;;;;;;;12.30;6.70;;;7.00;99.90;;;;;;5057689;28;20033;-75
2022/11/14 07:51:03;;;;;;;10.83;6.13;;;7.00;99.90;;;;;;5064398;28;20158;-76
2022/11/14 07:53:29;;;;;;;13.00;6.33;;;7.00;99.90;;;;;;5067170;28;20017;-75
2022/11/14 07:55:56;;;;;;;11.93;6.37;;;7.00;99.90;;;;;;5061483;28;20458;-75
2022/11/14 07:58:22;;;;;;;10.63;6.03;;;7.00;99.90;;;;;;5058340;28;20067;-75
2022/11/14 08:00:47;;;;;;;15.10;6.70;;;7.00;99.90;;;;;;5062092;28;20031;-75
2022/11/14 08:03:13;;;;;;;15.63;6.87;;;7.00;99.90;;;;;;5052119;28;20021;-75
2022/11/14 08:05:38;;;;;;;11.27;6.57;;;7.00;99.90;;;;;;5052465;28;20037;-75
2022/11/14 08:08:04;;;;;;;12.80;6.40;;;7.00;99.90;;;;;;5062257;28;20033;-75
2022/11/14 08:10:30;;;;;;;11.47;6.60;;;7.10;99.90;;;;;;5056281;28;20056;-76
2022/11/14 08:13:01;;;;;;;10.07;6.23;;;7.10;99.90;;;;;;5044839;28;20355;-75
2022/11/14 08:15:27;;;;;;;13.32;7.15;;;7.10;99.90;;;;;;5057379;28;20025;-75
2022/11/14 08:18:00;;;;;;;11.83;6.93;;;7.10;99.90;;;;;;5054199;28;20082;-75
2022/11/14 08:20:27;;;;;;;10.43;6.43;;;7.20;99.90;;;;;;5059006;28;20050;-75
2022/11/14 08:22:53;;;;;;;11.88;6.75;;;7.20;99.90;;;;;;5065047;28;20120;-75
2022/11/14 08:25:19;;;;;;;11.13;6.70;;;7.20;99.90;;;;;;5055694;28;20037;-75
2022/11/14 08:27:45;;;;;;;11.68;6.43;;;7.20;99.90;;;;;;5066249;28;20025;-75
2022/11/14 08:30:11;;;;;;;12.82;6.88;;;7.20;99.90;;;;;;5065798;28;20108;-76
2022/11/14 08:32:36;;;;;;;11.53;6.57;;;7.30;99.90;;;;;;5059611;28;20512;-75
2022/11/14 08:35:02;;;;;;;13.50;6.63;;;7.30;99.90;;;;;;5057175;28;20029;-75
2022/11/14 08:37:28;;;;;;;12.80;7.07;;;7.30;99.90;;;;;;5057216;28;20090;-75
2022/11/14 08:39:53;;;;;;;12.63;6.88;;;7.30;99.90;;;;;;5055023;28;20424;-75
2022/11/14 08:42:19;;;;;;;14.38;7.00;;;7.30;99.90;;;;;;5056667;28;20078;-75
2022/11/14 08:44:45;;;;;;;11.23;6.38;;;7.20;99.90;;;;;;5059436;28;20032;-76
2022/11/14 08:47:10;;;;;;;13.43;6.80;;;7.30;99.90;;;;;;5054406;28;20356;-75
2022/11/14 08:49:36;;;;;;;11.75;6.78;;;7.30;99.90;;;;;;5055804;28;20048;-75
2022/11/14 08:52:01;;;;;;;11.57;6.40;;;7.30;99.90;;;;;;5054505;28;20037;-76
2022/11/14 08:54:28;;;;;;;13.68;6.70;;;7.30;99.90;;;;;;5057602;28;20025;-76
2022/11/14 08:56:53;;;;;;;14.65;7.57;;;7.30;99.90;;;;;;5054723;28;20086;-76
2022/11/14 08:59:19;;;;;;;13.57;7.27;;;7.30;99.90;;;;;;5066972;28;20417;-75
2022/11/14 09:01:44;;;;;;;12.57;7.17;;;7.40;99.90;;;;;;5062451;28;20044;-75
2022/11/14 09:04:10;;;;;;;12.90;7.05;;;7.40;99.90;;;;;;5056205;28;20040;-75
2022/11/14 09:06:35;;;;;;;12.55;7.05;;;7.40;99.90;;;;;;5058695;28;20025;-75
2022/11/14 09:09:01;;;;;;;13.27;7.53;;;7.50;99.90;;;;;;5056877;28;20064;-75
2022/11/14 09:11:26;;;;;;;15.23;7.38;;;7.50;99.90;;;;;;5050404;28;20170;-75
2022/11/14 09:13:52;;;;;;;12.48;7.30;;;7.40;99.90;;;;;;5051657;28;20390;-75
2022/11/14 09:16:18;;;;;;;11.80;6.80;;;7.50;99.90;;;;;;5065480;28;20115;-75
2022/11/14 09:18:43;;;;;;;14.68;7.80;;;7.50;99.90;;;;;;5061699;28;20032;-75
2022/11/14 09:21:09;;;;;;;16.00;7.47;;;7.50;99.90;;;;;;5051543;28;20032;-75
2022/11/14 09:23:35;;;;;;;12.00;6.95;;;7.60;99.90;;;;;;5056493;28;20100;-75
2022/11/14 09:26:08;;;;;;;11.70;6.65;;;7.60;99.90;;;;;;5055667;28;20108;-76
2022/11/14 09:28:35;;;;;;;14.32;6.78;;;7.60;99.90;;;;;;5050881;28;20116;-75
2022/11/14 09:31:07;;;;;;;11.23;6.70;;;7.70;99.90;;;;;;5055963;28;20035;-76
2022/11/14 09:33:33;;;;;;;10.95;6.68;;;7.70;99.90;;;;;;5053181;28;20041;-76
2022/11/14 09:36:01;;;;;;;11.18;6.93;;;7.80;99.90;;;;;;5052867;28;20041;-75
2022/11/14 09:38:27;;;;;;;12.60;6.85;;;7.80;99.90;;;;;;5055862;28;20052;-75
2022/11/14 09:41:08;;;;;;;12.77;7.57;;;7.80;99.90;;;;;;5050991;28;20032;-81
2022/11/14 09:43:52;;;;;;;11.15;6.80;;;7.80;99.90;;;;;;5055037;28;20025;-77
2022/11/14 09:46:24;;;;;;;12.68;7.07;;;7.90;99.90;;;;;;5058016;28;20029;-77
2022/11/14 09:48:51;;;;;;;11.68;6.78;;;7.90;99.90;;;;;;5057167;28;20029;-78
2022/11/14 09:51:21;;;;;;;11.25;6.47;;;7.80;99.90;;;;;;5059897;28;20025;-77
2022/11/14 09:54:23;;;;;;;11.00;6.05;;;7.80;99.90;;;;;;5065167;28;20466;-77
2022/11/14 09:56:50;;;;;;;10.25;6.22;;;7.90;99.90;;;;;;5061446;28;20083;-75
2022/11/14 09:59:16;;;;;;;9.55;6.05;;;7.90;99.90;;;;;;5066725;28;20233;-74
2022/11/14 10:02:03;;;;;;;13.80;5.93;;;7.90;99.90;;;;;;5069667;28;20558;-74
2022/11/14 10:04:47;;;;;;;9.32;5.45;;;7.90;99.90;;;;;;5063259;28;20016;-74
2022/11/14 10:07:26;;;;;;;10.73;5.60;;;7.90;99.90;;;;;;5053189;28;20025;-74
2022/11/14 10:10:21;;;;;;;10.00;5.68;;;7.90;99.90;;;;;;5059300;28;20092;-75
2022/11/14 10:13:17;;;;;;;9.85;5.65;;;7.90;99.90;;;;;;5052517;28;20097;-73
2022/11/14 10:16:09;;;;;;;12.50;6.03;;;7.90;99.90;;;;;;5058621;28;20068;-73
2022/11/14 10:19:02;;;;;;;9.85;5.70;;;7.90;99.90;;;;;;5057434;28;20067;-73
2022/11/14 10:21:45;;;;;;;10.55;5.95;;;7.90;99.90;;;;;;5050509;28;20025;-73
2022/11/14 10:24:38;;;;;;;9.60;5.45;;;7.90;99.90;;;;;;5059288;28;20033;-73
2022/11/14 10:27:11;;;;;;;11.32;6.00;;;7.80;99.90;;;;;;5059594;28;20028;-73
2022/11/14 10:29:51;;;;;;;8.73;5.22;;;7.80;99.90;;;;;;5059317;28;20029;-73
2022/11/14 10:32:38;;;;;;;9.73;5.45;;;7.90;99.90;;;;;;5066075;28;20032;-73
2022/11/14 10:35:16;;;;;;;8.68;4.90;;;7.90;99.90;;;;;;5068141;28;20036;-73
2022/11/14 10:38:05;;;;;;;9.02;5.25;;;7.90;99.90;;;;;;5056898;28;20227;-73
2022/11/14 10:40:46;;;;;;;7.70;4.85;;;8.00;99.90;;;;;;5060813;28;20028;-73
2022/11/14 10:43:20;;;;;;;8.77;4.95;;;7.90;99.90;;;;;;5045723;28;20029;-73
2022/11/14 10:45:52;;;;;;;8.93;5.20;;;7.90;99.90;;;;;;5059362;28;20109;-74
2022/11/14 10:48:57;;;;;;;9.40;4.93;;;8.00;99.90;;;;;;5060103;28;20528;-74
2022/11/14 10:51:38;;;;;;;9.45;5.00;;;8.00;99.90;;;;;;5046261;28;20028;-77
2022/11/14 10:54:37;;;;;;;11.77;6.15;;;8.00;99.90;;;;;;5035052;28;20056;-76
2022/11/14 10:57:19;;;;;;;11.98;5.47;;;8.00;99.90;;;;;;5036052;28;20037;-74
2022/11/14 10:59:46;;;;;;;9.30;5.40;;;8.00;99.90;;;;;;5051717;28;20330;-74
2022/11/14 11:02:12;;;;;;;7.82;4.63;;;8.00;99.90;;;;;;5034490;28;20421;-75
2022/11/14 11:04:41;;;;;;;9.05;4.90;;;8.00;99.90;;;;;;5051638;28;20033;-76
2022/11/14 11:07:06;;;;;;;7.63;4.68;;;8.10;99.90;;;;;;5054575;28;20029;-75
2022/11/14 11:12:44;;;;;;;12.77;5.53;;;8.10;99.90;;;;;;5051616;28;20048;-79
2022/11/14 11:15:15;;;;;;;9.95;5.60;;;8.10;99.90;;;;;;5046051;28;20178;-75
2022/11/14 11:17:53;;;;;;;9.73;5.85;;;8.20;99.90;;;;;;5051385;28;20025;-77
2022/11/14 11:20:29;;;;;;;9.93;5.80;;;8.20;99.90;;;;;;5051298;28;20074;-76
2022/11/14 11:23:18;;;;;;;10.50;5.65;;;8.20;99.90;;;;;;5055649;28;20381;-76
2022/11/14 11:25:44;;;;;;;8.52;5.38;;;8.20;99.90;;;;;;5066909;28;20040;-74
2022/11/14 11:28:18;;;;;;;10.52;6.32;;;8.20;99.90;;;;;;5053538;28;20386;-74
2022/11/14 11:30:59;;;;;;;9.50;5.80;;;8.20;99.90;;;;;;5052159;28;20089;-74
2022/11/14 11:33:30;;;;;;;8.48;5.60;;;8.10;99.90;;;;;;5053548;28;20075;-75
2022/11/14 11:36:02;;;;;;;9.85;5.78;;;8.10;99.90;;;;;;5053641;28;20123;-75
2022/11/14 11:38:29;;;;;;;11.35;6.47;;;8.10;99.90;;;;;;5054825;28;20135;-75
2022/11/14 11:41:22;;;;;;;12.63;5.60;;;8.10;99.90;;;;;;5065350;28;20029;-74
2022/11/14 11:43:54;;;;;;;10.15;6.13;;;8.10;99.90;;;;;;5065076;28;20477;-74
2022/11/14 11:46:50;;;;;;;12.25;6.32;;;8.10;99.90;;;;;;5063410;28;20051;-73
2022/11/14 11:49:34;;;;;;;10.57;6.22;;;8.00;99.90;;;;;;5042759;28;20359;-73
2022/11/14 11:52:29;;;;;;;9.18;6.10;;;8.00;99.90;;;;;;5053275;28;20021;-73
2022/11/14 11:55:01;;;;;;;11.25;6.25;;;8.10;99.90;;;;;;5041959;28;20093;-74
2022/11/14 11:57:40;;;;;;;10.38;5.82;;;8.10;99.90;;;;;;5053322;28;20036;-74
2022/11/14 12:00:21;;;;;;;10.00;6.20;;;8.10;99.90;;;;;;5054025;28;20067;-74
2022/11/14 12:02:49;;;;;;;9.68;5.57;;;8.20;99.90;;;;;;5054520;28;20395;-75
2022/11/14 12:05:16;;;;;;;10.07;5.40;;;8.30;99.90;;;;;;5054389;28;20470;-74
2022/11/14 12:07:53;;;;;;;11.23;5.47;;;8.40;99.90;;;;;;5064047;28;20071;-74
2022/11/14 12:10:26;;;;;;;9.40;5.50;;;8.40;99.90;;;;;;5069560;28;20059;-75
2022/11/14 12:13:16;;;;;;;12.13;6.03;;;8.50;99.90;;;;;;5049614;28;20106;-75
2022/11/14 12:16:00;;;;;;;11.82;5.95;;;8.70;99.90;;;;;;5053068;28;20041;-73
2022/11/14 12:18:52;;;;;;;13.20;6.50;;;8.80;99.90;;;;;;5055462;28;20106;-73
2022/11/14 12:21:36;;;;;;;11.07;6.13;;;8.80;99.90;;;;;;5052081;28;20070;-75
2022/11/14 12:24:33;;;;;;;12.88;7.68;;;8.90;99.90;;;;;;5052217;28;20029;-73
2022/11/14 12:27:17;;;;;;;13.13;6.82;;;8.80;99.90;;;;;;5052829;28;20021;-76
2022/11/14 12:30:12;;;;;;;12.70;6.10;;;9.30;99.90;;;;;;5053932;28;20442;-73
2022/11/14 12:32:41;;;;;;;13.48;6.07;;;9.50;99.90;;;;;;5067722;28;20061;-74
2022/11/14 12:35:17;;;;;;;13.15;6.13;;;10.00;99.90;;;;;;5069765;28;20027;-76
2022/11/14 12:37:45;;;;;;;11.80;6.20;;;10.20;99.90;;;;;;5061842;28;20032;-73
2022/11/14 12:40:23;;;;;;;14.35;7.32;;;10.20;99.90;;;;;;5052118;28;20052;-73
2022/11/14 12:42:49;;;;;;;14.48;6.90;;;10.40;99.90;;;;;;5050704;28;20029;-73
2022/11/14 12:45:39;;;;;;;11.93;6.72;;;10.80;99.90;;;;;;5051920;28;20085;-73
2022/11/14 12:48:24;;;;;;;11.90;6.93;;;10.90;99.90;;;;;;5052231;28;20028;-73
2022/11/14 12:50:52;;;;;;;11.20;6.47;;;11.00;99.90;;;;;;5055463;28;20025;-76
2022/11/14 12:53:35;;;;;;;14.50;7.55;;;11.00;99.90;;;;;;5057766;28;20087;-73
2022/11/14 12:56:16;;;;;;;16.58;7.32;;;11.00;99.90;;;;;;5051700;28;20025;-76
2022/11/14 12:59:05;;;;;;;12.57;7.07;;;10.90;99.90;;;;;;5059008;28;20041;-74
2022/11/14 13:01:43;;;;;;;17.42;6.70;;;10.70;99.90;;;;;;5051188;28;20056;-75
2022/11/14 13:04:33;;;;;;;11.63;6.53;;;10.40;99.90;;;;;;5052586;28;20425;-75